createdAt,value
2019-04-27T00:00:43.365Z,0.00
2019-04-27T00:01:47.002Z,0.00
2019-04-27T00:02:44.103Z,0.00
2019-04-27T00:03:44.738Z,0.00
2019-04-27T00:04:43.090Z,0.00
2019-04-27T00:05:43.447Z,0.00
2019-04-27T00:06:46.395Z,0.00
2019-04-27T00:07:43.908Z,0.00
2019-04-27T00:08:43.176Z,0.00
2019-04-27T00:09:50.062Z,0.00
2019-04-27T00:10:44.101Z,0.00
2019-04-27T00:11:45.423Z,0.00
2019-04-27T00:12:42.981Z,0.00
2019-04-27T00:13:43.958Z,0.00
2019-04-27T00:14:43.906Z,0.00
2019-04-27T00:15:43.940Z,0.00
2019-04-27T00:16:47.692Z,0.00
2019-04-27T00:17:48.621Z,0.00
2019-04-27T00:18:45.515Z,0.00
2019-04-27T00:19:43.968Z,0.00
2019-04-27T00:20:43.427Z,0.00
2019-04-27T00:21:43.085Z,0.00
2019-04-27T00:22:43.584Z,0.00
2019-04-27T00:23:42.984Z,0.00
2019-04-27T00:24:44.199Z,0.00
2019-04-27T00:25:43.812Z,0.00
2019-04-27T00:26:43.366Z,0.00
2019-04-27T00:27:43.640Z,0.00
2019-04-27T00:28:43.405Z,0.00
2019-04-27T00:29:43.260Z,0.00
2019-04-27T00:30:43.884Z,0.00
2019-04-27T00:31:43.499Z,0.00
2019-04-27T00:32:43.358Z,0.00
2019-04-27T00:33:43.449Z,0.00
2019-04-27T00:34:43.200Z,0.00
2019-04-27T00:35:43.824Z,0.00
2019-04-27T00:36:43.518Z,0.00
2019-04-27T00:37:44.797Z,0.00
2019-04-27T00:38:43.563Z,0.00
2019-04-27T00:39:43.325Z,0.00
2019-04-27T00:40:43.648Z,0.00
2019-04-27T00:41:43.049Z,0.00
2019-04-27T00:42:44.107Z,0.00
2019-04-27T00:43:42.807Z,0.00
2019-04-27T00:44:43.056Z,0.00
2019-04-27T00:45:43.672Z,0.00
2019-04-27T00:46:43.120Z,0.00
2019-04-27T00:47:54.643Z,0.00
2019-04-27T00:48:43.552Z,0.00
2019-04-27T00:49:44.360Z,0.00
2019-04-27T00:50:43.874Z,0.00
2019-04-27T00:51:43.278Z,0.00
2019-04-27T00:52:42.918Z,0.00
2019-04-27T00:53:43.530Z,0.00
2019-04-27T00:54:44.024Z,0.00
2019-04-27T00:55:43.499Z,0.00
2019-04-27T00:56:42.970Z,0.00
2019-04-27T00:57:43.532Z,0.00
2019-04-27T00:58:43.022Z,0.00
2019-04-27T00:59:43.166Z,0.00
2019-04-27T01:00:44.002Z,0.00
2019-04-27T01:01:43.593Z,0.00
2019-04-27T01:02:43.527Z,0.00
2019-04-27T01:03:43.069Z,0.00
2019-04-27T01:04:42.857Z,0.00
2019-04-27T01:05:43.058Z,0.00
2019-04-27T01:06:43.737Z,0.00
2019-04-27T01:07:43.475Z,0.00
2019-04-27T01:08:42.797Z,0.00
2019-04-27T01:09:42.776Z,0.00
2019-04-27T01:10:43.528Z,0.00
2019-04-27T01:11:43.439Z,0.00
2019-04-27T01:12:42.969Z,0.00
2019-04-27T01:13:43.464Z,0.00
2019-04-27T01:14:42.765Z,0.00
2019-04-27T01:15:43.009Z,0.00
2019-04-27T01:16:51.377Z,0.00
2019-04-27T01:17:42.248Z,0.00
2019-04-27T01:18:42.239Z,0.00
2019-04-27T01:19:42.218Z,0.00
2019-04-27T01:20:42.227Z,0.00
2019-04-27T01:21:42.229Z,0.00
2019-04-27T01:22:42.188Z,0.00
2019-04-27T01:23:42.191Z,0.00
2019-04-27T01:24:42.168Z,0.00
2019-04-27T01:25:42.169Z,0.00
2019-04-27T01:26:42.179Z,0.00
2019-04-27T01:27:42.155Z,0.00
2019-04-27T01:28:42.120Z,0.00
2019-04-27T01:29:42.137Z,0.00
2019-04-27T01:30:42.108Z,0.00
2019-04-27T01:31:42.131Z,0.00
2019-04-27T01:32:42.086Z,0.00
2019-04-27T01:33:42.070Z,0.00
2019-04-27T01:34:42.088Z,0.00
2019-04-27T01:35:42.050Z,0.00
2019-04-27T01:36:42.050Z,0.00
2019-04-27T01:37:42.020Z,0.00
2019-04-27T01:38:42.027Z,0.00
2019-04-27T01:39:42.026Z,0.00
2019-04-27T01:40:42.004Z,0.00
2019-04-27T01:41:41.999Z,0.00
2019-04-27T01:42:41.977Z,0.00
2019-04-27T01:43:41.978Z,0.00
2019-04-27T01:44:41.946Z,0.00
2019-04-27T01:45:41.967Z,0.00
2019-04-27T01:46:41.955Z,0.00
2019-04-27T01:47:41.959Z,0.00
2019-04-27T01:48:41.935Z,0.00
2019-04-27T01:49:42.006Z,0.00
2019-04-27T01:50:41.876Z,0.00
2019-04-27T01:51:41.887Z,0.00
2019-04-27T01:52:41.898Z,0.00
2019-04-27T01:53:41.856Z,0.00
2019-04-27T01:54:41.837Z,0.00
2019-04-27T01:55:41.827Z,0.00
2019-04-27T01:56:41.817Z,0.00
2019-04-27T01:57:41.823Z,0.00
2019-04-27T01:58:41.801Z,0.00
2019-04-27T01:59:41.837Z,0.00
2019-04-27T02:00:41.778Z,0.00
2019-04-27T02:01:41.829Z,0.00
2019-04-27T02:02:41.771Z,0.00
2019-04-27T02:03:41.765Z,0.00
2019-04-27T02:04:41.742Z,0.00
2019-04-27T02:05:41.751Z,0.00
2019-04-27T02:06:41.702Z,0.00
2019-04-27T02:07:41.691Z,0.00
2019-04-27T02:08:41.707Z,0.00
2019-04-27T02:09:41.676Z,0.00
2019-04-27T02:10:41.673Z,0.00
2019-04-27T02:11:41.702Z,0.00
2019-04-27T02:12:43.942Z,0.00
2019-04-27T02:13:41.718Z,0.00
2019-04-27T02:14:41.653Z,0.00
2019-04-27T02:15:41.667Z,0.00
2019-04-27T02:16:41.597Z,0.00
2019-04-27T02:17:41.575Z,0.00
2019-04-27T02:18:41.584Z,0.00
2019-04-27T02:19:41.558Z,0.00
2019-04-27T02:20:44.328Z,0.00
2019-04-27T02:21:41.539Z,0.00
2019-04-27T02:22:41.524Z,0.00
2019-04-27T02:23:41.536Z,0.00
2019-04-27T02:24:41.504Z,0.00
2019-04-27T02:25:41.497Z,0.00
2019-04-27T02:26:41.475Z,0.00
2019-04-27T02:27:41.477Z,0.00
2019-04-27T02:28:41.473Z,0.00
2019-04-27T02:29:41.472Z,0.00
2019-04-27T02:30:41.446Z,0.00
2019-04-27T02:31:41.432Z,0.00
2019-04-27T02:32:41.412Z,0.00
2019-04-27T02:33:41.425Z,0.00
2019-04-27T02:34:42.974Z,0.00
2019-04-27T02:35:42.004Z,0.00
2019-04-27T02:36:41.364Z,0.00
2019-04-27T02:37:41.354Z,0.00
2019-04-27T02:38:41.363Z,0.00
2019-04-27T02:39:41.351Z,0.00
2019-04-27T02:40:42.657Z,0.00
2019-04-27T02:41:41.322Z,0.00
2019-04-27T02:42:42.239Z,0.00
2019-04-27T02:43:41.313Z,0.00
2019-04-27T02:44:41.296Z,0.00
2019-04-27T02:45:41.334Z,0.00
2019-04-27T02:46:41.267Z,0.00
2019-04-27T02:47:41.249Z,0.00
2019-04-27T02:48:55.422Z,0.00
2019-04-27T02:49:42.254Z,0.00
2019-04-27T02:50:41.292Z,0.00
2019-04-27T02:51:42.886Z,0.00
2019-04-27T02:52:41.213Z,0.00
2019-04-27T02:53:41.190Z,0.00
2019-04-27T02:54:41.172Z,0.00
2019-04-27T02:55:41.194Z,0.00
2019-04-27T02:56:41.142Z,0.00
2019-04-27T02:57:41.133Z,0.00
2019-04-27T02:58:41.130Z,0.00
2019-04-27T02:59:41.112Z,0.00
2019-04-27T03:00:41.137Z,0.00
2019-04-27T03:01:46.489Z,0.00
2019-04-27T03:02:42.074Z,0.00
2019-04-27T03:03:41.348Z,0.00
2019-04-27T03:04:41.073Z,0.00
2019-04-27T03:05:42.609Z,0.00
2019-04-27T03:06:41.042Z,0.00
2019-04-27T03:07:42.858Z,0.00
2019-04-27T03:08:42.684Z,0.00
2019-04-27T03:09:41.005Z,0.00
2019-04-27T03:10:41.039Z,0.00
2019-04-27T03:11:40.983Z,0.00
2019-04-27T03:12:42.376Z,0.00
2019-04-27T03:13:40.957Z,0.00
2019-04-27T03:14:40.941Z,0.00
2019-04-27T03:15:40.979Z,0.00
2019-04-27T03:16:40.938Z,0.00
2019-04-27T03:17:40.927Z,0.00
2019-04-27T03:18:40.920Z,0.00
2019-04-27T03:19:40.890Z,0.00
2019-04-27T03:20:40.902Z,0.00
2019-04-27T03:21:40.889Z,0.00
2019-04-27T03:22:40.850Z,0.00
2019-04-27T03:23:41.329Z,0.00
2019-04-27T03:24:40.841Z,0.00
2019-04-27T03:25:40.818Z,0.00
2019-04-27T03:26:41.868Z,0.00
2019-04-27T03:27:40.820Z,0.00
2019-04-27T03:28:40.808Z,0.00
2019-04-27T03:29:40.823Z,0.00
2019-04-27T03:30:42.470Z,0.00
2019-04-27T03:31:42.578Z,0.00
2019-04-27T03:32:42.856Z,0.00
2019-04-27T03:33:42.790Z,0.00
2019-04-27T03:34:41.817Z,0.00
2019-04-27T03:35:43.178Z,0.00
2019-04-27T03:36:40.717Z,0.00
2019-04-27T03:37:40.686Z,0.00
2019-04-27T03:38:40.687Z,0.00
2019-04-27T03:39:40.668Z,0.00
2019-04-27T03:40:40.656Z,0.00
2019-04-27T03:41:41.255Z,0.00
2019-04-27T03:42:40.667Z,0.00
2019-04-27T03:43:40.626Z,0.00
2019-04-27T03:44:40.625Z,0.00
2019-04-27T03:45:40.617Z,0.00
2019-04-27T03:46:40.589Z,0.00
2019-04-27T03:47:41.055Z,0.00
2019-04-27T03:48:40.959Z,0.00
2019-04-27T03:49:41.539Z,0.00
2019-04-27T03:50:42.907Z,0.00
2019-04-27T03:51:40.546Z,0.00
2019-04-27T03:52:40.551Z,0.00
2019-04-27T03:53:40.516Z,0.00
2019-04-27T03:54:40.517Z,0.00
2019-04-27T03:55:42.862Z,0.00
2019-04-27T03:56:40.486Z,0.00
2019-04-27T03:57:40.524Z,0.00
2019-04-27T03:58:40.476Z,0.00
2019-04-27T03:59:40.666Z,0.00
2019-04-27T04:00:40.435Z,0.00
2019-04-27T04:01:40.447Z,0.00
2019-04-27T04:02:40.701Z,0.00
2019-04-27T04:03:40.455Z,0.00
2019-04-27T04:04:40.701Z,0.00
2019-04-27T04:05:40.407Z,0.00
2019-04-27T04:06:40.377Z,0.00
2019-04-27T04:07:40.514Z,0.00
2019-04-27T04:08:40.370Z,0.00
2019-04-27T04:09:40.516Z,0.00
2019-04-27T04:10:41.790Z,0.00
2019-04-27T04:11:40.330Z,0.00
2019-04-27T04:12:40.328Z,0.00
2019-04-27T04:13:40.317Z,5.62
2019-04-27T04:14:42.824Z,5.62
2019-04-27T04:15:40.289Z,5.62
2019-04-27T04:16:40.253Z,5.62
2019-04-27T04:17:40.486Z,11.25
2019-04-27T04:18:40.247Z,11.25
2019-04-27T04:19:51.214Z,11.25
2019-04-27T04:20:41.211Z,11.25
2019-04-27T04:21:40.364Z,11.25
2019-04-27T04:22:40.501Z,11.25
2019-04-27T04:23:40.351Z,11.25
2019-04-27T04:24:40.194Z,11.25
2019-04-27T04:25:40.999Z,11.25
2019-04-27T04:26:40.424Z,11.25
2019-04-27T04:27:42.640Z,11.25
2019-04-27T04:28:40.143Z,11.25
2019-04-27T04:29:40.131Z,11.25
2019-04-27T04:30:40.407Z,11.25
2019-04-27T04:31:40.640Z,11.25
2019-04-27T04:32:40.079Z,16.88
2019-04-27T04:33:40.458Z,16.88
2019-04-27T04:34:40.390Z,16.88
2019-04-27T04:35:40.154Z,16.88
2019-04-27T04:36:42.544Z,22.50
2019-04-27T04:37:40.032Z,28.12
2019-04-27T04:38:40.287Z,28.12
2019-04-27T04:39:40.608Z,28.12
2019-04-27T04:40:40.157Z,28.12
2019-04-27T04:41:43.162Z,33.75
2019-04-27T04:42:39.960Z,33.75
2019-04-27T04:43:40.112Z,33.75
2019-04-27T04:44:40.234Z,33.75
2019-04-27T04:45:39.931Z,39.38
2019-04-27T04:46:40.125Z,39.38
2019-04-27T04:47:40.686Z,39.38
2019-04-27T04:48:40.516Z,45.00
2019-04-27T04:49:39.985Z,45.00
2019-04-27T04:50:39.992Z,45.00
2019-04-27T04:51:40.281Z,45.00
2019-04-27T04:52:42.461Z,45.00
2019-04-27T04:53:40.556Z,50.62
2019-04-27T04:54:40.842Z,50.62
2019-04-27T04:55:39.846Z,50.62
2019-04-27T04:56:39.818Z,50.62
2019-04-27T04:57:40.118Z,50.62
2019-04-27T04:58:41.439Z,50.62
2019-04-27T04:59:39.798Z,50.62
2019-04-27T05:00:40.202Z,50.62
2019-04-27T05:01:40.011Z,50.62
2019-04-27T05:02:39.935Z,50.62
2019-04-27T05:03:39.739Z,45.00
2019-04-27T05:04:39.722Z,45.00
2019-04-27T05:05:41.393Z,39.38
2019-04-27T05:06:39.699Z,33.75
2019-04-27T05:07:39.689Z,28.12
2019-04-27T05:08:39.686Z,28.12
2019-04-27T05:09:39.681Z,28.12
2019-04-27T05:10:39.691Z,28.12
2019-04-27T05:11:39.714Z,28.12
2019-04-27T05:12:39.648Z,28.12
2019-04-27T05:13:39.617Z,33.75
2019-04-27T05:14:39.668Z,33.75
2019-04-27T05:15:39.635Z,33.75
2019-04-27T05:16:39.614Z,39.38
2019-04-27T05:17:39.963Z,45.00
2019-04-27T05:18:39.567Z,50.62
2019-04-27T05:19:39.555Z,56.25
2019-04-27T05:20:39.767Z,56.25
2019-04-27T05:21:39.536Z,61.88
2019-04-27T05:22:39.592Z,73.12
2019-04-27T05:23:39.554Z,78.75
2019-04-27T05:24:39.496Z,84.38
2019-04-27T05:25:39.506Z,90.00
2019-04-27T05:26:39.812Z,90.00
2019-04-27T05:27:40.755Z,95.62
2019-04-27T05:28:40.853Z,101.25
2019-04-27T05:29:39.466Z,112.50
2019-04-27T05:30:39.427Z,118.12
2019-04-27T05:31:39.445Z,118.12
2019-04-27T05:32:39.468Z,123.75
2019-04-27T05:33:39.408Z,123.75
2019-04-27T05:34:39.535Z,123.75
2019-04-27T05:35:41.140Z,123.75
2019-04-27T05:36:41.693Z,129.38
2019-04-27T05:37:40.359Z,135.00
2019-04-27T05:38:45.525Z,135.00
2019-04-27T05:39:40.374Z,135.00
2019-04-27T05:40:39.837Z,140.62
2019-04-27T05:41:41.493Z,140.62
2019-04-27T05:42:39.706Z,140.62
2019-04-27T05:43:39.327Z,140.62
2019-04-27T05:44:45.494Z,135.00
2019-04-27T05:45:40.290Z,135.00
2019-04-27T05:46:39.747Z,135.00
2019-04-27T05:47:39.336Z,129.38
2019-04-27T05:48:39.243Z,129.38
2019-04-27T05:49:41.121Z,129.38
2019-04-27T05:50:45.630Z,129.38
2019-04-27T05:51:41.980Z,123.75
2019-04-27T05:52:40.920Z,123.75
2019-04-27T05:53:39.623Z,118.12
2019-04-27T05:54:39.187Z,112.50
2019-04-27T05:55:39.332Z,106.88
2019-04-27T05:56:39.158Z,112.50
2019-04-27T05:57:39.151Z,118.12
2019-04-27T05:58:39.368Z,112.50
2019-04-27T05:59:39.813Z,112.50
2019-04-27T06:00:39.413Z,106.88
2019-04-27T06:01:39.220Z,112.50
2019-04-27T06:02:39.829Z,123.75
2019-04-27T06:03:39.671Z,123.75
2019-04-27T06:04:41.274Z,129.38
2019-04-27T06:05:39.239Z,129.38
2019-04-27T06:06:39.906Z,129.38
2019-04-27T06:07:39.631Z,123.75
2019-04-27T06:08:39.403Z,118.12
2019-04-27T06:09:39.196Z,112.50
2019-04-27T06:10:38.983Z,112.50
2019-04-27T06:11:39.960Z,112.50
2019-04-27T06:12:39.606Z,118.12
2019-04-27T06:13:39.303Z,106.88
2019-04-27T06:14:39.364Z,95.62
2019-04-27T06:15:39.015Z,101.25
2019-04-27T06:16:39.445Z,106.88
2019-04-27T06:17:38.942Z,90.00
2019-04-27T06:18:39.288Z,84.38
2019-04-27T06:19:39.126Z,84.38
2019-04-27T06:20:50.362Z,73.12
2019-04-27T06:21:40.276Z,67.50
2019-04-27T06:22:39.126Z,61.88
2019-04-27T06:23:39.132Z,67.50
2019-04-27T06:24:39.728Z,78.75
2019-04-27T06:25:39.375Z,90.00
2019-04-27T06:26:39.965Z,84.38
2019-04-27T06:27:39.674Z,84.38
2019-04-27T06:28:39.829Z,95.62
2019-04-27T06:29:39.179Z,112.50
2019-04-27T06:30:39.235Z,129.38
2019-04-27T06:31:39.688Z,140.62
2019-04-27T06:32:39.539Z,157.50
2019-04-27T06:33:39.223Z,168.75
2019-04-27T06:34:39.135Z,185.62
2019-04-27T06:35:39.939Z,196.88
2019-04-27T06:36:38.837Z,208.12
2019-04-27T06:37:38.977Z,225.00
2019-04-27T06:38:39.341Z,236.25
2019-04-27T06:39:38.765Z,241.88
2019-04-27T06:40:39.133Z,241.88
2019-04-27T06:41:40.068Z,236.25
2019-04-27T06:42:39.836Z,208.12
2019-04-27T06:43:40.438Z,185.62
2019-04-27T06:44:39.502Z,191.25
2019-04-27T06:45:38.871Z,219.38
2019-04-27T06:46:40.345Z,241.88
2019-04-27T06:47:39.714Z,253.12
2019-04-27T06:48:39.457Z,258.75
2019-04-27T06:49:39.570Z,264.38
2019-04-27T06:50:39.040Z,264.38
2019-04-27T06:51:40.057Z,258.75
2019-04-27T06:52:39.028Z,253.12
2019-04-27T06:53:39.483Z,247.50
2019-04-27T06:54:38.949Z,247.50
2019-04-27T06:55:39.185Z,241.88
2019-04-27T06:56:39.049Z,241.88
2019-04-27T06:57:39.411Z,241.88
2019-04-27T06:58:40.484Z,241.88
2019-04-27T06:59:40.026Z,241.88
2019-04-27T07:00:39.514Z,241.88
2019-04-27T07:01:39.048Z,247.50
2019-04-27T07:02:39.213Z,258.75
2019-04-27T07:03:39.561Z,258.75
2019-04-27T07:04:39.097Z,264.38
2019-04-27T07:05:38.873Z,270.00
2019-04-27T07:06:52.275Z,275.62
2019-04-27T07:07:39.603Z,275.62
2019-04-27T07:08:40.130Z,281.25
2019-04-27T07:09:39.276Z,286.88
2019-04-27T07:10:39.181Z,292.50
2019-04-27T07:11:39.466Z,298.12
2019-04-27T07:12:38.744Z,298.12
2019-04-27T07:13:39.065Z,303.75
2019-04-27T07:14:51.762Z,303.75
2019-04-27T07:15:39.279Z,309.38
2019-04-27T07:16:39.229Z,309.38
2019-04-27T07:17:38.853Z,309.38
2019-04-27T07:18:39.710Z,309.38
2019-04-27T07:19:39.701Z,315.00
2019-04-27T07:20:38.847Z,309.38
2019-04-27T07:21:40.020Z,309.38
2019-04-27T07:22:39.708Z,309.38
2019-04-27T07:23:38.855Z,315.00
2019-04-27T07:24:38.814Z,315.00
2019-04-27T07:25:38.904Z,315.00
2019-04-27T07:26:39.074Z,315.00
2019-04-27T07:27:39.476Z,315.00
2019-04-27T07:28:39.258Z,320.62
2019-04-27T07:29:40.311Z,320.62
2019-04-27T07:30:39.117Z,326.25
2019-04-27T07:31:40.016Z,331.88
2019-04-27T07:32:39.090Z,337.50
2019-04-27T07:33:39.566Z,343.12
2019-04-27T07:34:38.801Z,343.12
2019-04-27T07:35:39.270Z,337.50
2019-04-27T07:36:39.334Z,326.25
2019-04-27T07:37:39.305Z,326.25
2019-04-27T07:38:39.476Z,326.25
2019-04-27T07:39:39.112Z,331.88
2019-04-27T07:40:40.009Z,337.50
2019-04-27T07:41:38.741Z,337.50
2019-04-27T07:42:40.880Z,354.38
2019-04-27T07:43:39.645Z,376.88
2019-04-27T07:44:39.073Z,382.50
2019-04-27T07:45:39.502Z,382.50
2019-04-27T07:46:38.542Z,376.88
2019-04-27T07:47:39.358Z,388.12
2019-04-27T07:48:39.484Z,399.38
2019-04-27T07:49:39.079Z,416.25
2019-04-27T07:50:39.040Z,421.88
2019-04-27T07:51:39.300Z,433.12
2019-04-27T07:52:38.789Z,433.12
2019-04-27T07:53:38.985Z,427.50
2019-04-27T07:54:38.444Z,433.12
2019-04-27T07:55:39.456Z,438.75
2019-04-27T07:56:38.993Z,438.75
2019-04-27T07:57:37.797Z,438.75
2019-04-27T07:58:39.512Z,438.75
2019-04-27T07:59:41.657Z,433.12
2019-04-27T08:00:39.394Z,427.50
2019-04-27T08:01:39.335Z,427.50
2019-04-27T08:02:39.025Z,427.50
2019-04-27T08:03:39.018Z,433.12
2019-04-27T08:04:37.754Z,438.75
2019-04-27T08:05:39.140Z,461.25
2019-04-27T08:06:38.785Z,455.62
2019-04-27T08:07:39.130Z,421.88
2019-04-27T08:08:39.548Z,461.25
2019-04-27T08:09:39.618Z,478.12
2019-04-27T08:10:39.219Z,455.62
2019-04-27T08:11:39.199Z,483.75
2019-04-27T08:12:38.636Z,528.75
2019-04-27T08:13:38.995Z,528.75
2019-04-27T08:14:38.463Z,517.50
2019-04-27T08:15:39.475Z,540.00
2019-04-27T08:16:38.812Z,540.00
2019-04-27T08:17:37.584Z,545.62
2019-04-27T08:18:39.494Z,590.62
2019-04-27T08:19:39.307Z,601.88
2019-04-27T08:20:39.088Z,613.12
2019-04-27T08:21:44.357Z,635.62
2019-04-27T08:22:38.986Z,635.62
2019-04-27T08:23:39.319Z,646.88
2019-04-27T08:24:39.400Z,635.62
2019-04-27T08:25:39.177Z,630.00
2019-04-27T08:26:37.493Z,630.00
2019-04-27T08:27:39.304Z,630.00
2019-04-27T08:28:38.653Z,618.75
2019-04-27T08:29:39.309Z,669.38
2019-04-27T08:30:39.255Z,697.50
2019-04-27T08:31:38.701Z,697.50
2019-04-27T08:32:39.026Z,635.62
2019-04-27T08:33:38.911Z,613.12
2019-04-27T08:34:37.397Z,601.88
2019-04-27T08:35:38.874Z,601.88
2019-04-27T08:36:38.868Z,618.75
2019-04-27T08:37:38.634Z,601.88
2019-04-27T08:38:38.965Z,613.12
2019-04-27T08:39:37.336Z,646.88
2019-04-27T08:40:39.215Z,652.50
2019-04-27T08:41:37.346Z,658.12
2019-04-27T08:42:38.977Z,646.88
2019-04-27T08:43:39.075Z,630.00
2019-04-27T08:44:37.278Z,607.50
2019-04-27T08:45:39.046Z,579.38
2019-04-27T08:46:38.573Z,579.38
2019-04-27T08:47:39.111Z,585.00
2019-04-27T08:48:39.328Z,596.25
2019-04-27T08:49:39.252Z,601.88
2019-04-27T08:50:39.782Z,562.50
2019-04-27T08:51:37.217Z,540.00
2019-04-27T08:52:39.070Z,528.75
2019-04-27T08:53:37.188Z,556.88
2019-04-27T08:54:37.203Z,551.25
2019-04-27T08:55:37.145Z,506.25
2019-04-27T08:56:37.157Z,466.88
2019-04-27T08:57:38.716Z,455.62
2019-04-27T08:58:38.624Z,478.12
2019-04-27T08:59:37.106Z,478.12
2019-04-27T09:00:38.976Z,444.38
2019-04-27T09:01:37.113Z,399.38
2019-04-27T09:02:44.365Z,382.50
2019-04-27T09:03:39.489Z,365.62
2019-04-27T09:04:37.054Z,354.38
2019-04-27T09:05:38.861Z,343.12
2019-04-27T09:06:39.326Z,309.38
2019-04-27T09:07:37.040Z,275.62
2019-04-27T09:08:40.916Z,247.50
2019-04-27T09:09:37.016Z,247.50
2019-04-27T09:10:38.673Z,275.62
2019-04-27T09:11:36.977Z,315.00
2019-04-27T09:12:36.976Z,343.12
2019-04-27T09:13:36.946Z,371.25
2019-04-27T09:14:36.946Z,427.50
2019-04-27T09:15:36.925Z,472.50
2019-04-27T09:16:38.833Z,511.88
2019-04-27T09:17:36.916Z,545.62
2019-04-27T09:18:36.886Z,562.50
2019-04-27T09:19:36.884Z,551.25
2019-04-27T09:20:38.850Z,579.38
2019-04-27T09:21:36.878Z,607.50
2019-04-27T09:22:36.918Z,607.50
2019-04-27T09:23:38.659Z,624.38
2019-04-27T09:24:36.827Z,635.62
2019-04-27T09:25:36.874Z,646.88
2019-04-27T09:26:36.806Z,641.25
2019-04-27T09:27:36.793Z,618.75
2019-04-27T09:28:38.704Z,506.25
2019-04-27T09:29:36.779Z,461.25
2019-04-27T09:30:36.766Z,416.25
2019-04-27T09:31:36.765Z,393.75
2019-04-27T09:32:38.431Z,416.25
2019-04-27T09:33:36.759Z,421.88
2019-04-27T09:34:36.742Z,427.50
2019-04-27T09:35:36.696Z,427.50
2019-04-27T09:36:37.527Z,365.62
2019-04-27T09:37:36.725Z,354.38
2019-04-27T09:38:36.685Z,360.00
2019-04-27T09:39:36.673Z,382.50
2019-04-27T09:40:36.700Z,393.75
2019-04-27T09:41:36.677Z,371.25
2019-04-27T09:42:38.351Z,309.38
2019-04-27T09:43:36.827Z,264.38
2019-04-27T09:44:37.227Z,241.88
2019-04-27T09:45:37.162Z,225.00
2019-04-27T09:46:36.586Z,219.38
2019-04-27T09:47:39.022Z,213.75
2019-04-27T09:48:36.586Z,208.12
2019-04-27T09:49:38.335Z,202.50
2019-04-27T09:50:36.557Z,196.88
2019-04-27T09:51:36.546Z,180.00
2019-04-27T09:52:36.551Z,157.50
2019-04-27T09:53:36.610Z,129.38
2019-04-27T09:54:36.682Z,118.12
2019-04-27T09:55:36.970Z,123.75
2019-04-27T09:56:36.482Z,140.62
2019-04-27T09:57:36.558Z,163.12
2019-04-27T09:58:36.650Z,180.00
2019-04-27T09:59:37.742Z,196.88
2019-04-27T10:00:36.545Z,225.00
2019-04-27T10:01:36.418Z,286.88
2019-04-27T10:02:36.677Z,348.75
2019-04-27T10:03:36.419Z,371.25
2019-04-27T10:04:36.377Z,388.12
2019-04-27T10:05:36.822Z,416.25
2019-04-27T10:06:36.401Z,455.62
2019-04-27T10:07:36.365Z,489.38
2019-04-27T10:08:36.738Z,495.00
2019-04-27T10:09:36.804Z,472.50
2019-04-27T10:10:37.146Z,444.38
2019-04-27T10:11:36.321Z,433.12
2019-04-27T10:12:36.862Z,399.38
2019-04-27T10:13:36.546Z,416.25
2019-04-27T10:14:36.291Z,427.50
2019-04-27T10:15:36.276Z,438.75
2019-04-27T10:16:36.659Z,466.88
2019-04-27T10:17:36.243Z,455.62
2019-04-27T10:18:36.782Z,444.38
2019-04-27T10:19:36.640Z,466.88
2019-04-27T10:20:40.681Z,472.50
2019-04-27T10:21:36.618Z,511.88
2019-04-27T10:22:41.290Z,540.00
2019-04-27T10:23:38.430Z,528.75
2019-04-27T10:24:36.159Z,506.25
2019-04-27T10:25:37.500Z,472.50
2019-04-27T10:26:36.280Z,450.00
2019-04-27T10:27:36.119Z,399.38
2019-04-27T10:28:37.295Z,405.00
2019-04-27T10:29:36.129Z,393.75
2019-04-27T10:30:36.106Z,388.12
2019-04-27T10:31:36.110Z,371.25
2019-04-27T10:32:36.233Z,365.62
2019-04-27T10:33:36.079Z,376.88
2019-04-27T10:34:36.062Z,388.12
2019-04-27T10:35:36.436Z,393.75
2019-04-27T10:36:36.832Z,376.88
2019-04-27T10:37:36.021Z,326.25
2019-04-27T10:38:36.160Z,275.62
2019-04-27T10:39:36.211Z,225.00
2019-04-27T10:40:35.982Z,180.00
2019-04-27T10:41:36.921Z,163.12
2019-04-27T10:42:35.988Z,168.75
2019-04-27T10:43:35.979Z,202.50
2019-04-27T10:44:35.955Z,247.50
2019-04-27T10:45:37.841Z,298.12
2019-04-27T10:46:35.921Z,326.25
2019-04-27T10:47:36.088Z,343.12
2019-04-27T10:48:36.734Z,343.12
2019-04-27T10:49:35.911Z,315.00
2019-04-27T10:50:36.596Z,286.88
2019-04-27T10:51:36.425Z,270.00
2019-04-27T10:52:35.872Z,264.38
2019-04-27T10:53:38.732Z,303.75
2019-04-27T10:54:35.841Z,253.12
2019-04-27T10:55:36.295Z,241.88
2019-04-27T10:56:36.207Z,258.75
2019-04-27T10:57:35.821Z,264.38
2019-04-27T10:58:35.801Z,270.00
2019-04-27T10:59:36.161Z,298.12
2019-04-27T11:00:36.801Z,320.62
2019-04-27T11:01:35.997Z,343.12
2019-04-27T11:02:35.736Z,371.25
2019-04-27T11:03:35.745Z,376.88
2019-04-27T11:04:36.043Z,382.50
2019-04-27T11:05:35.931Z,393.75
2019-04-27T11:06:35.691Z,388.12
2019-04-27T11:07:36.310Z,376.88
2019-04-27T11:08:35.674Z,331.88
2019-04-27T11:09:35.701Z,320.62
2019-04-27T11:10:36.116Z,326.25
2019-04-27T11:11:36.307Z,337.50
2019-04-27T11:12:35.633Z,360.00
2019-04-27T11:13:35.925Z,365.62
2019-04-27T11:14:35.662Z,360.00
2019-04-27T11:15:37.122Z,348.75
2019-04-27T11:16:37.762Z,343.12
2019-04-27T11:17:37.083Z,326.25
2019-04-27T11:18:36.051Z,320.62
2019-04-27T11:19:35.808Z,315.00
2019-04-27T11:20:36.289Z,298.12
2019-04-27T11:21:35.658Z,292.50
2019-04-27T11:22:36.312Z,303.75
2019-04-27T11:23:35.955Z,253.12
2019-04-27T11:24:35.526Z,253.12
2019-04-27T11:25:36.513Z,275.62
2019-04-27T11:26:36.369Z,303.75
2019-04-27T11:27:35.463Z,315.00
2019-04-27T11:28:35.956Z,337.50
2019-04-27T11:29:36.089Z,343.12
2019-04-27T11:30:35.458Z,348.75
2019-04-27T11:31:36.378Z,365.62
2019-04-27T11:32:35.404Z,376.88
2019-04-27T11:33:36.345Z,382.50
2019-04-27T11:34:38.139Z,382.50
2019-04-27T11:35:35.818Z,399.38
2019-04-27T11:36:35.636Z,416.25
2019-04-27T11:37:37.208Z,483.75
2019-04-27T11:38:36.569Z,500.62
2019-04-27T11:39:35.962Z,489.38
2019-04-27T11:40:36.685Z,444.38
2019-04-27T11:41:35.307Z,399.38
2019-04-27T11:42:35.294Z,461.25
2019-04-27T11:43:36.092Z,523.12
2019-04-27T11:44:35.941Z,568.12
2019-04-27T11:45:36.750Z,573.75
2019-04-27T11:46:35.275Z,596.25
2019-04-27T11:47:36.467Z,585.00
2019-04-27T11:48:36.164Z,579.38
2019-04-27T11:49:35.967Z,596.25
2019-04-27T11:50:35.823Z,596.25
2019-04-27T11:51:36.598Z,556.88
2019-04-27T11:52:35.184Z,466.88
2019-04-27T11:53:35.971Z,416.25
2019-04-27T11:54:35.630Z,371.25
2019-04-27T11:55:35.186Z,331.88
2019-04-27T11:56:36.198Z,286.88
2019-04-27T11:57:35.773Z,264.38
2019-04-27T11:58:35.179Z,258.75
2019-04-27T11:59:35.108Z,270.00
2019-04-27T12:00:36.457Z,286.88
2019-04-27T12:01:35.823Z,292.50
2019-04-27T12:02:35.783Z,348.75
2019-04-27T12:03:35.054Z,315.00
2019-04-27T12:04:36.415Z,376.88
2019-04-27T12:05:36.272Z,405.00
2019-04-27T12:06:35.843Z,433.12
2019-04-27T12:07:35.004Z,483.75
2019-04-27T12:08:36.570Z,511.88
2019-04-27T12:09:34.997Z,466.88
2019-04-27T12:10:36.335Z,421.88
2019-04-27T12:11:36.290Z,399.38
2019-04-27T12:12:36.321Z,416.25
2019-04-27T12:13:35.922Z,416.25
2019-04-27T12:14:34.936Z,416.25
2019-04-27T12:15:36.208Z,410.62
2019-04-27T12:16:36.049Z,421.88
2019-04-27T12:17:35.889Z,472.50
2019-04-27T12:18:34.887Z,489.38
2019-04-27T12:19:35.619Z,495.00
2019-04-27T12:20:35.884Z,523.12
2019-04-27T12:21:36.158Z,506.25
2019-04-27T12:22:34.877Z,450.00
2019-04-27T12:23:39.452Z,472.50
2019-04-27T12:24:35.824Z,495.00
2019-04-27T12:25:36.987Z,500.62
2019-04-27T12:26:36.285Z,511.88
2019-04-27T12:27:35.854Z,528.75
2019-04-27T12:28:35.575Z,540.00
2019-04-27T12:29:34.765Z,540.00
2019-04-27T12:30:34.760Z,523.12
2019-04-27T12:31:35.883Z,489.38
2019-04-27T12:32:36.029Z,455.62
2019-04-27T12:33:35.823Z,433.12
2019-04-27T12:34:36.160Z,421.88
2019-04-27T12:35:34.696Z,421.88
2019-04-27T12:36:35.890Z,421.88
2019-04-27T12:37:35.625Z,421.88
2019-04-27T12:38:36.353Z,433.12
2019-04-27T12:39:34.679Z,433.12
2019-04-27T12:40:36.546Z,438.75
2019-04-27T12:41:35.418Z,444.38
2019-04-27T12:42:36.415Z,455.62
2019-04-27T12:43:35.591Z,472.50
2019-04-27T12:44:40.472Z,489.38
2019-04-27T12:45:36.705Z,500.62
2019-04-27T12:46:34.577Z,523.12
2019-04-27T12:47:36.296Z,540.00